Weirsdale, Florida
Current Conditions -  °F | °C
As of 12:53 PM on Friday 28 Nov 2014 (Local Time) from KLEE Reporting Station
Clear Clear  
Wind Chill: 58°   Ceiling: Unl
Heat Index: 58°   Visibility: 10mi
Dew Point: 37°   Wind: 9mph
Humidity: 46%   Direction: 40°NE
Pressure: 30.31"   Gusts: NA
Location:  28.98°N, 81.92°W
Report Text: KLEE 281753Z 04008KT 10SM CLR 14/03 A3031 RMK AO2 SLP263 T01440028 10144 20039 58019
Loading
Personal Weather Stations






























Interactive Weather Map New forecast layout! Learn more

10-Day Weather Forecast

Advertisements
Track Severe Weather on mobile